Time;durP1;ratioP1;P1;durP2;ratioP2;P2;SDS_P1;SDS_P2;PMS_P1;PMS_P2;Temp;Humidity;BMP_temperature;BMP_pressure;BME280_temperature;BME280_humidity;BME280_pressure;Samples;Min_cycle;Max_cycle;Signal;HPM_P1;HPM_P2
2022/08/24 00:01:06;;;;;;;24.33;16.80;;;563.50;2432.00;;;;;;5107964;28;20023;-79
2022/08/24 00:03:33;;;;;;;24.60;17.05;;;563.50;2432.00;;;;;;5085241;28;20074;-79
2022/08/24 00:05:59;;;;;;;22.85;16.77;;;563.50;2432.00;;;;;;5106056;28;20016;-78
2022/08/24 00:08:25;;;;;;;22.60;16.85;;;563.50;2432.00;;;;;;5078985;28;20027;-78
2022/08/24 00:10:50;;;;;;;24.63;17.52;;;563.50;2432.00;;;;;;5075584;28;20040;-78
2022/08/24 00:13:16;;;;;;;23.65;17.48;;;563.50;2432.00;;;;;;5083329;28;20073;-78
2022/08/24 00:15:42;;;;;;;25.80;16.95;;;563.50;2432.00;;;;;;5087402;28;20096;-78
2022/08/24 00:18:08;;;;;;;22.13;17.20;;;563.60;2432.00;;;;;;5088445;28;20026;-78
2022/08/24 00:20:34;;;;;;;22.83;16.10;;;563.50;2432.00;;;;;;5106192;28;20020;-78
2022/08/24 00:23:00;;;;;;;23.20;17.73;;;563.40;2432.00;;;;;;5085262;28;20109;-80
2022/08/24 00:25:26;;;;;;;21.23;17.30;;;563.50;2432.00;;;;;;5099691;28;20085;-78
2022/08/24 00:27:52;;;;;;;22.77;16.33;;;563.50;2432.00;;;;;;5100068;28;20028;-79
2022/08/24 00:30:19;;;;;;;22.75;17.40;;;563.50;2432.00;;;;;;5100298;28;20032;-78
2022/08/24 00:32:46;;;;;;;22.27;16.27;;;563.40;2432.00;;;;;;5082220;28;20023;-78
2022/08/24 00:35:13;;;;;;;22.50;16.13;;;563.40;2432.00;;;;;;5102323;28;20534;-78
2022/08/24 00:37:39;;;;;;;18.88;15.88;;;563.40;2432.00;;;;;;5099898;28;20409;-78
2022/08/24 00:40:12;;;;;;;24.08;17.38;;;563.40;2432.00;;;;;;5101113;28;20020;-79
2022/08/24 00:42:38;;;;;;;21.48;16.05;;;563.40;2278.40;;;;;;5082914;28;20485;-78
2022/08/24 00:45:08;;;;;;;22.45;17.25;;;563.40;2176.00;;;;;;5081789;28;20469;-79
2022/08/24 00:47:42;;;;;;;20.73;16.55;;;563.40;2432.00;;;;;;5102191;28;20023;-78
2022/08/24 00:50:13;;;;;;;22.20;16.42;;;563.40;2432.00;;;;;;5075977;28;20455;-78
2022/08/24 00:52:45;;;;;;;22.15;16.10;;;563.40;2432.00;;;;;;5102572;28;20084;-78
2022/08/24 00:55:22;;;;;;;22.85;16.58;;;563.50;2432.00;;;;;;5081530;28;20027;-78
2022/08/24 00:57:53;;;;;;;21.92;16.75;;;563.50;2432.00;;;;;;5092904;28;20032;-79
2022/08/24 01:00:23;;;;;;;21.95;16.77;;;563.40;2432.00;;;;;;5081140;28;20016;-78
2022/08/24 01:02:57;;;;;;;20.00;15.65;;;563.40;2432.00;;;;;;5097387;28;20020;-78
2022/08/24 01:05:23;;;;;;;23.35;16.17;;;563.50;2432.00;;;;;;5091533;28;20078;-78
2022/08/24 01:07:49;;;;;;;22.17;15.40;;;563.50;2432.00;;;;;;5079270;28;20069;-78
2022/08/24 01:10:24;;;;;;;21.73;15.07;;;563.40;2432.00;;;;;;5100809;28;20035;-79
2022/08/24 01:12:53;;;;;;;24.77;16.17;;;563.40;2432.00;;;;;;5095795;28;20027;-78
2022/08/24 01:15:21;;;;;;;19.30;14.40;;;563.40;2432.00;;;;;;5081445;28;20538;-79
2022/08/24 01:20:32;;;;;;;18.30;14.05;;;563.50;2432.00;;;;;;5102670;28;20062;-79
2022/08/24 01:23:25;;;;;;;20.25;14.68;;;563.50;2432.00;;;;;;5080315;28;20419;-79
2022/08/24 01:25:51;;;;;;;19.05;13.90;;;563.60;2432.00;;;;;;5082970;28;20026;-79
2022/08/24 01:28:19;;;;;;;19.17;14.38;;;563.50;2432.00;;;;;;5103856;28;20103;-78
2022/08/24 01:30:45;;;;;;;20.02;14.60;;;563.60;2432.00;;;;;;5086099;28;20038;-79
2022/08/24 01:33:25;;;;;;;19.17;14.48;;;563.60;2432.00;;;;;;5104063;28;20031;-78
2022/08/24 01:35:57;;;;;;;18.33;13.98;;;563.60;2432.00;;;;;;5087163;28;20023;-79
2022/08/24 01:38:23;;;;;;;19.85;15.02;;;563.50;2432.00;;;;;;5090387;28;20048;-79
2022/08/24 01:40:53;;;;;;;18.60;13.07;;;563.60;2432.00;;;;;;5085783;28;20024;-78
2022/08/24 01:43:19;;;;;;;18.85;13.63;;;563.50;2432.00;;;;;;5106614;28;20020;-78
2022/08/24 01:45:45;;;;;;;22.88;16.20;;;563.60;2432.00;;;;;;5103383;28;20020;-79
2022/08/24 01:48:12;;;;;;;21.73;14.82;;;563.50;2432.00;;;;;;5085299;28;20059;-79
2022/08/24 01:50:38;;;;;;;19.13;14.02;;;563.50;2432.00;;;;;;5080448;28;20028;-78
2022/08/24 01:53:05;;;;;;;23.10;15.48;;;563.60;2432.00;;;;;;5084739;28;20027;-78
2022/08/24 01:55:32;;;;;;;18.42;13.63;;;563.60;2432.00;;;;;;5105459;28;20023;-79
2022/08/24 01:57:58;;;;;;;22.10;14.70;;;563.50;2432.00;;;;;;5086530;28;20079;-79
2022/08/24 02:00:24;;;;;;;17.63;14.43;;;563.50;2432.00;;;;;;5085511;28;20020;-79
2022/08/24 02:02:49;;;;;;;22.45;14.77;;;563.60;2432.00;;;;;;5084548;28;20670;-79
2022/08/24 02:05:16;;;;;;;20.67;14.77;;;563.60;2432.00;;;;;;5086294;28;20131;-78
2022/08/24 02:07:42;;;;;;;20.33;14.30;;;563.50;2432.00;;;;;;5087619;28;20111;-78
2022/08/24 02:10:13;;;;;;;19.95;13.15;;;563.50;2432.00;;;;;;5108151;28;20028;-78
2022/08/24 02:12:41;;;;;;;19.60;15.07;;;563.50;2432.00;;;;;;5097257;28;20031;-78
2022/08/24 02:15:09;;;;;;;17.48;14.50;;;563.50;2432.00;;;;;;5099632;28;20152;-78
2022/08/24 02:17:36;;;;;;;18.75;15.15;;;563.40;2432.00;;;;;;5081632;28;20030;-79
2022/08/24 02:20:04;;;;;;;21.67;14.82;;;563.60;2432.00;;;;;;5078491;28;20020;-79
2022/08/24 02:22:30;;;;;;;19.88;14.20;;;563.60;2432.00;;;;;;5087274;28;20027;-78
2022/08/24 02:24:56;;;;;;;21.00;15.20;;;563.60;2432.00;;;;;;5081397;28;20028;-79
2022/08/24 02:27:22;;;;;;;22.80;14.98;;;563.60;2432.00;;;;;;5081528;28;20020;-79
2022/08/24 02:29:48;;;;;;;19.85;15.25;;;563.60;2432.00;;;;;;5084353;28;20125;-79
2022/08/24 02:32:14;;;;;;;26.85;15.88;;;563.40;2406.40;;;;;;5083416;28;20016;-79
2022/08/24 02:34:39;;;;;;;23.58;16.70;;;563.30;2432.00;;;;;;5083128;28;20024;-78
2022/08/24 02:37:05;;;;;;;25.30;17.02;;;563.20;2432.00;;;;;;5104589;28;20113;-78
2022/08/24 02:39:31;;;;;;;20.33;15.70;;;563.30;2432.00;;;;;;5081219;28;20078;-79
2022/08/24 02:41:57;;;;;;;19.80;15.23;;;563.40;2432.00;;;;;;5085270;28;20016;-79
2022/08/24 02:44:23;;;;;;;19.80;15.23;;;563.50;2432.00;;;;;;5087681;28;20023;-79
2022/08/24 02:46:48;;;;;;;21.88;15.07;;;563.60;2432.00;;;;;;5082955;28;20089;-78
2022/08/24 02:49:15;;;;;;;18.83;14.45;;;563.60;2432.00;;;;;;5105644;28;20074;-79
2022/08/24 02:51:44;;;;;;;19.90;14.95;;;563.60;2432.00;;;;;;5108551;28;20461;-78
2022/08/24 02:54:10;;;;;;;19.35;15.63;;;563.60;2432.00;;;;;;5083679;28;20062;-78
2022/08/24 02:56:36;;;;;;;20.42;15.85;;;563.60;2432.00;;;;;;5086367;28;20020;-79
2022/08/24 02:59:01;;;;;;;22.88;14.90;;;563.70;2432.00;;;;;;5082759;28;20016;-79
2022/08/24 03:01:28;;;;;;;23.10;15.98;;;563.60;2432.00;;;;;;5077470;28;20032;-79
2022/08/24 03:03:55;;;;;;;19.20;14.77;;;563.70;2432.00;;;;;;5084421;28;20473;-79
2022/08/24 03:06:20;;;;;;;20.92;15.43;;;563.70;2432.00;;;;;;5086912;28;20022;-78
2022/08/24 03:08:47;;;;;;;20.13;14.52;;;563.70;2432.00;;;;;;5083772;28;20040;-79
2022/08/24 03:11:13;;;;;;;20.98;14.65;;;563.70;2432.00;;;;;;5097346;28;20493;-79
2022/08/24 03:13:39;;;;;;;19.85;15.02;;;563.70;2432.00;;;;;;5080198;28;20027;-79
2022/08/24 03:16:06;;;;;;;19.77;14.75;;;563.70;2432.00;;;;;;5106953;28;20466;-78
2022/08/24 03:18:33;;;;;;;20.85;14.70;;;563.70;2432.00;;;;;;5091986;28;20031;-78
2022/08/24 03:21:00;;;;;;;18.55;14.23;;;563.70;2432.00;;;;;;5086391;28;20110;-79
2022/08/24 03:23:26;;;;;;;17.58;15.05;;;563.70;2432.00;;;;;;5105018;28;20020;-78
2022/08/24 03:25:53;;;;;;;21.42;14.77;;;563.70;2432.00;;;;;;5101673;28;20016;-78
2022/08/24 03:28:19;;;;;;;17.00;13.20;;;563.90;2432.00;;;;;;5084994;28;20059;-78
2022/08/24 03:30:46;;;;;;;20.50;15.10;;;563.70;2432.00;;;;;;5083060;28;20016;-79
2022/08/24 03:33:11;;;;;;;17.70;14.18;;;563.70;2432.00;;;;;;5104107;28;20027;-78
2022/08/24 03:35:38;;;;;;;20.20;14.02;;;563.70;2432.00;;;;;;5101527;28;20016;-79
2022/08/24 03:38:05;;;;;;;18.73;14.60;;;563.60;2432.00;;;;;;5089507;28;20051;-78
2022/08/24 03:40:32;;;;;;;20.63;15.48;;;563.70;2432.00;;;;;;5082486;28;20024;-78
2022/08/24 03:42:58;;;;;;;18.73;14.35;;;563.60;2432.00;;;;;;5082900;28;20023;-79
2022/08/24 03:45:24;;;;;;;20.20;14.43;;;563.60;2432.00;;;;;;5106666;28;20488;-78
2022/08/24 03:47:52;;;;;;;18.55;14.27;;;563.70;2432.00;;;;;;5091172;28;20020;-78
2022/08/24 03:50:19;;;;;;;21.95;15.82;;;563.70;2432.00;;;;;;5084979;28;20031;-78
2022/08/24 03:52:45;;;;;;;17.98;14.30;;;563.70;2432.00;;;;;;5081699;28;20048;-78
2022/08/24 03:55:11;;;;;;;24.40;15.30;;;563.70;2432.00;;;;;;5088841;28;20044;-78
2022/08/24 03:57:36;;;;;;;20.23;14.45;;;563.70;2432.00;;;;;;5082581;28;20467;-78
2022/08/24 04:00:05;;;;;;;21.13;15.05;;;563.70;2432.00;;;;;;5089715;28;20072;-78
2022/08/24 04:02:32;;;;;;;18.10;14.43;;;563.70;2432.00;;;;;;5076675;28;20111;-78
2022/08/24 04:04:58;;;;;;;20.35;15.48;;;563.60;2432.00;;;;;;5083279;28;20028;-78
2022/08/24 04:07:24;;;;;;;19.55;15.05;;;563.70;2432.00;;;;;;5082711;28;20032;-79
2022/08/24 04:09:49;;;;;;;19.98;15.23;;;563.70;2278.40;;;;;;5091215;28;20109;-79
2022/08/24 04:12:15;;;;;;;21.42;16.08;;;563.70;2432.00;;;;;;5098344;28;20476;-79
2022/08/24 04:14:41;;;;;;;21.65;16.73;;;563.60;2432.00;;;;;;5085584;28;20059;-78
2022/08/24 04:17:07;;;;;;;24.35;16.85;;;563.60;2432.00;;;;;;5080885;28;20038;-79
2022/08/24 04:19:33;;;;;;;26.80;17.55;;;563.60;2432.00;;;;;;5079080;28;20023;-79
2022/08/24 04:21:59;;;;;;;25.52;18.67;;;563.60;2432.00;;;;;;5098814;28;20020;-75
2022/08/24 04:24:25;;;;;;;31.33;20.27;;;563.60;2432.00;;;;;;5100657;28;20026;-77
2022/08/24 04:26:51;;;;;;;27.58;17.88;;;563.70;2432.00;;;;;;5076982;28;20127;-76
2022/08/24 04:29:19;;;;;;;25.15;18.63;;;563.60;2432.00;;;;;;5091354;28;20561;-77
2022/08/24 04:31:45;;;;;;;22.15;17.42;;;563.60;2432.00;;;;;;5073251;28;20063;-77
2022/08/24 04:34:12;;;;;;;23.15;16.80;;;563.60;2432.00;;;;;;5091318;28;20027;-76
2022/08/24 04:36:43;;;;;;;21.02;16.58;;;563.60;2252.80;;;;;;5091941;28;20055;-78
2022/08/24 04:39:09;;;;;;;22.55;17.88;;;563.60;2432.00;;;;;;5079706;28;20070;-78
2022/08/24 04:41:35;;;;;;;25.23;17.45;;;563.70;2432.00;;;;;;5081761;28;20043;-78
2022/08/24 04:44:02;;;;;;;21.15;16.52;;;563.70;2432.00;;;;;;5094380;28;20505;-79
2022/08/24 04:46:28;;;;;;;25.65;17.58;;;563.70;2201.60;;;;;;5075333;28;20028;-78
2022/08/24 04:48:53;;;;;;;28.77;19.25;;;563.70;2432.00;;;;;;5076347;28;20028;-78
2022/08/24 04:51:20;;;;;;;28.13;18.63;;;563.70;2329.60;;;;;;5082096;28;20012;-78
2022/08/24 04:53:47;;;;;;;22.35;17.95;;;563.70;2432.00;;;;;;5077687;28;20059;-78
2022/08/24 04:56:20;;;;;;;27.35;19.85;;;563.70;2124.80;;;;;;5084283;28;20044;-78
2022/08/24 04:58:46;;;;;;;34.72;21.65;;;563.70;2124.80;;;;;;5081518;28;20424;-77
2022/08/24 05:01:15;;;;;;;26.52;19.05;;;563.70;2048.00;;;;;;5099011;28;20016;-77
2022/08/24 05:03:44;;;;;;;23.50;18.42;;;563.70;2432.00;;;;;;5106632;28;20015;-81
2022/08/24 05:06:12;;;;;;;27.00;20.52;;;563.70;2432.00;;;;;;5079725;28;20469;-77
2022/08/24 05:08:38;;;;;;;28.63;18.85;;;563.80;2432.00;;;;;;5104331;28;20385;-79
2022/08/24 05:11:07;;;;;;;25.75;20.70;;;563.80;2432.00;;;;;;5103257;28;20043;-78
2022/08/24 05:13:34;;;;;;;26.58;20.15;;;563.60;2432.00;;;;;;5101248;28;20063;-77
2022/08/24 05:16:04;;;;;;;31.55;22.05;;;563.60;2432.00;;;;;;5094839;28;20024;-79
2022/08/24 05:18:32;;;;;;;34.20;20.17;;;563.60;2432.00;;;;;;5101910;28;20051;-76
2022/08/24 05:20:58;;;;;;;34.17;20.73;;;563.70;2432.00;;;;;;5098413;28;20052;-79
2022/08/24 05:58:54;;;;;;;33.90;24.60;;;563.40;2432.00;;;;;;5130607;27;20887;-80
2022/08/24 06:01:23;;;;;;;36.10;24.20;;;564.10;2432.00;;;;;;5114609;28;20031;-74
2022/08/24 06:03:50;;;;;;;31.33;23.25;;;564.00;2432.00;;;;;;5128388;28;20031;-74
2022/08/24 06:06:18;;;;;;;36.50;25.30;;;564.00;2432.00;;;;;;5126980;27;20023;-73
2022/08/24 06:08:47;;;;;;;35.20;23.88;;;564.00;2432.00;;;;;;5109760;28;20035;-76
2022/08/24 06:11:23;;;;;;;34.28;24.48;;;563.80;2227.20;;;;;;5124263;28;20028;-76
2022/08/24 06:13:52;;;;;;;39.22;24.92;;;563.80;2432.00;;;;;;5128826;28;20053;-74
2022/08/24 06:16:17;;;;;;;42.30;26.92;;;563.80;2432.00;;;;;;5129798;27;20032;-73
2022/08/24 06:18:43;;;;;;;37.10;25.98;;;563.70;2432.00;;;;;;5129894;28;20102;-73
2022/08/24 06:21:12;;;;;;;33.80;24.15;;;563.70;2432.00;;;;;;5129731;28;20515;-76
2022/08/24 06:23:39;;;;;;;35.25;23.65;;;563.80;2432.00;;;;;;5129852;27;20098;-77
2022/08/24 06:28:51;;;;;;;38.53;26.08;;;563.90;2201.60;;;;;;5116044;28;20038;-74
2022/08/24 06:31:18;;;;;;;33.17;24.88;;;564.00;2432.00;;;;;;5129490;27;20152;-73
2022/08/24 06:33:44;;;;;;;37.03;25.33;;;564.00;2432.00;;;;;;5129233;28;20051;-74
2022/08/24 06:36:09;;;;;;;33.75;25.45;;;564.00;2432.00;;;;;;5129679;28;20098;-73
2022/08/24 06:38:35;;;;;;;40.25;28.35;;;564.00;2432.00;;;;;;5129280;28;20487;-74
2022/08/24 06:41:01;;;;;;;36.55;24.52;;;564.00;2432.00;;;;;;5129627;28;20022;-76
2022/08/24 06:43:27;;;;;;;36.47;25.40;;;564.10;2432.00;;;;;;5129015;28;20059;-72
2022/08/24 06:45:54;;;;;;;37.53;26.90;;;564.10;2432.00;;;;;;5110646;28;20124;-78
2022/08/24 06:48:21;;;;;;;37.67;25.48;;;564.10;2432.00;;;;;;5129083;28;20039;-75
2022/08/24 06:50:46;;;;;;;45.08;25.85;;;564.10;2432.00;;;;;;5093775;28;20024;-73
2022/08/24 06:53:13;;;;;;;37.10;25.55;;;564.10;2432.00;;;;;;5087582;28;20491;-78
2022/08/24 06:55:48;;;;;;;36.67;26.38;;;564.10;2432.00;;;;;;5123784;28;20408;-77
2022/08/24 06:58:13;;;;;;;37.78;25.80;;;564.10;2432.00;;;;;;5124092;28;20079;-75
2022/08/24 07:00:40;;;;;;;42.72;27.58;;;564.10;2432.00;;;;;;5100698;28;20189;-73
2022/08/24 07:03:06;;;;;;;37.00;24.30;;;564.10;2432.00;;;;;;5114813;28;20016;-75
2022/08/24 07:05:32;;;;;;;40.08;27.25;;;564.10;2432.00;;;;;;5096753;28;20027;-74
2022/08/24 07:07:58;;;;;;;37.45;25.15;;;564.10;2432.00;;;;;;5115090;28;20435;-75
2022/08/24 07:10:24;;;;;;;38.85;24.35;;;564.10;2432.00;;;;;;5115179;28;20077;-73
2022/08/24 07:12:50;;;;;;;43.85;27.30;;;564.10;2432.00;;;;;;5096917;28;20019;-73
2022/08/24 07:15:18;;;;;;;46.10;28.50;;;564.10;2432.00;;;;;;5096008;28;20046;-73
2022/08/24 07:17:44;;;;;;;40.22;27.55;;;564.00;2432.00;;;;;;5114836;28;20181;-74
2022/08/24 07:20:11;;;;;;;37.35;26.25;;;564.00;2432.00;;;;;;5114759;28;20012;-76
2022/08/24 07:22:37;;;;;;;38.60;26.55;;;564.00;2432.00;;;;;;5096445;28;20019;-74
2022/08/24 07:25:04;;;;;;;37.58;26.70;;;564.00;2432.00;;;;;;5096667;28;20015;-74
2022/08/24 07:27:30;;;;;;;33.72;24.85;;;564.10;2432.00;;;;;;5114763;28;20122;-73
2022/08/24 07:29:56;;;;;;;34.58;25.20;;;564.10;2432.00;;;;;;5115045;28;20164;-74
2022/08/24 07:32:22;;;;;;;37.67;25.23;;;564.10;2432.00;;;;;;5096546;28;20489;-80
2022/08/24 07:34:48;;;;;;;41.05;28.60;;;564.10;2432.00;;;;;;5112634;28;20153;-79
2022/08/24 07:37:14;;;;;;;34.47;26.67;;;588.80;2432.00;;;;;;5084578;28;20164;-77
2022/08/24 07:39:39;;;;;;;38.20;28.67;;;564.10;2432.00;;;;;;5096609;28;20016;-75
2022/08/24 07:42:05;;;;;;;45.78;33.25;;;564.10;2432.00;;;;;;5090342;28;20073;-77
2022/08/24 07:44:31;;;;;;;35.55;28.08;;;564.10;2432.00;;;;;;5088626;28;20030;-79
2022/08/24 07:46:57;;;;;;;34.45;25.95;;;564.10;2432.00;;;;;;5092425;28;20035;-79
2022/08/24 07:49:23;;;;;;;38.25;26.55;;;564.10;2432.00;;;;;;5086156;28;20016;-80
2022/08/24 07:51:52;;;;;;;38.72;26.20;;;564.10;2432.00;;;;;;5096181;28;20062;-77
2022/08/24 07:54:21;;;;;;;36.92;24.27;;;564.00;2432.00;;;;;;5096252;28;20384;-77
2022/08/24 07:56:47;;;;;;;34.58;24.42;;;564.10;2432.00;;;;;;5095791;28;20036;-77
2022/08/24 07:59:13;;;;;;;34.13;23.08;;;564.00;2432.00;;;;;;5106004;28;20020;-79
2022/08/24 08:01:40;;;;;;;39.08;25.65;;;564.10;2432.00;;;;;;5081582;28;20020;-78
2022/08/24 08:04:05;;;;;;;35.50;25.23;;;564.10;2432.00;;;;;;5070641;28;20024;-78
2022/08/24 08:06:31;;;;;;;67.97;50.90;;;564.10;2432.00;;;;;;5059091;28;20073;-78
2022/08/24 08:08:57;;;;;;;51.08;38.88;;;564.10;2432.00;;;;;;5082328;28;20027;-81
2022/08/24 08:11:23;;;;;;;39.13;29.60;;;564.10;2432.00;;;;;;5082670;28;20115;-80
2022/08/24 08:13:49;;;;;;;39.65;26.52;;;564.10;2432.00;;;;;;5066420;28;20039;-76
2022/08/24 08:16:14;;;;;;;33.25;25.42;;;564.10;2432.00;;;;;;5076518;28;20449;-76
2022/08/24 08:18:40;;;;;;;34.63;25.52;;;564.10;2432.00;;;;;;5092676;28;20032;-76
2022/08/24 08:24:13;;;;;;;37.10;25.92;;;588.80;2432.00;;;;;;5092220;28;20016;-76
2022/08/24 08:26:39;;;;;;;33.88;24.55;;;588.80;2432.00;;;;;;5102322;28;20086;-77
2022/08/24 08:29:05;;;;;;;34.63;25.52;;;588.80;2432.00;;;;;;5095057;28;20062;-77
2022/08/24 08:31:32;;;;;;;37.17;24.85;;;588.80;2432.00;;;;;;5095527;28;20465;-77
2022/08/24 08:33:57;;;;;;;34.42;25.75;;;588.80;2432.00;;;;;;5078999;28;20032;-77
2022/08/24 08:36:23;;;;;;;31.63;25.95;;;588.80;2432.00;;;;;;5095154;28;20027;-76
2022/08/24 08:38:50;;;;;;;34.72;26.25;;;588.80;2432.00;;;;;;5081035;28;20115;-76
2022/08/24 08:41:36;;;;;;;43.13;27.67;;;588.80;2432.00;;;;;;5113337;28;20642;-77
2022/08/24 08:44:20;;;;;;;37.33;26.38;;;588.90;2432.00;;;;;;5069935;28;20362;-83
2022/08/24 08:47:36;;;;;;;33.35;25.02;;;588.80;2432.00;;;;;;5075575;28;20496;-76
2022/08/24 08:50:46;;;;;;;30.60;23.70;;;588.80;2432.00;;;;;;5071633;28;20114;-81
2022/08/24 08:53:15;;;;;;;32.63;23.88;;;588.80;2432.00;;;;;;5072254;28;20025;-79
2022/08/24 08:56:08;;;;;;;36.83;26.25;;;588.80;2432.00;;;;;;5079101;28;20054;-81
2022/08/24 08:58:49;;;;;;;37.65;26.52;;;588.80;2432.00;;;;;;5090206;28;20058;-79
2022/08/24 09:01:23;;;;;;;33.35;26.42;;;588.80;2432.00;;;;;;5058890;28;20028;-80
2022/08/24 09:04:19;;;;;;;39.22;27.85;;;588.80;2432.00;;;;;;5074060;28;20359;-78
2022/08/24 09:06:57;;;;;;;36.22;26.15;;;588.80;2432.00;;;;;;5063629;28;20032;-79
2022/08/24 09:09:38;;;;;;;36.78;26.80;;;564.10;2432.00;;;;;;5084061;28;20025;-80
2022/08/24 09:12:42;;;;;;;37.88;26.10;;;564.10;2432.00;;;;;;5078817;28;20031;-79
2022/08/24 09:15:29;;;;;;;37.63;26.40;;;588.80;2432.00;;;;;;5081173;28;20016;-80
2022/08/24 09:18:09;;;;;;;40.47;27.48;;;588.80;2432.00;;;;;;5082573;28;20038;-82
2022/08/24 09:20:59;;;;;;;44.00;27.67;;;588.80;2432.00;;;;;;5096017;28;20019;-79
2022/08/24 09:23:28;;;;;;;38.30;27.30;;;588.80;2432.00;;;;;;5113115;28;20020;-76
2022/08/24 09:26:05;;;;;;;40.03;27.55;;;588.80;2432.00;;;;;;5112865;28;20020;-78
2022/08/24 09:29:00;;;;;;;35.75;25.40;;;588.90;2432.00;;;;;;5112084;28;20067;-78
2022/08/24 09:31:52;;;;;;;37.92;25.77;;;588.80;2432.00;;;;;;5092535;28;20020;-78
2022/08/24 09:34:24;;;;;;;43.70;28.63;;;588.80;2432.00;;;;;;5082665;28;20039;-78
2022/08/24 09:36:56;;;;;;;46.40;28.80;;;588.80;2432.00;;;;;;5111171;28;20027;-78
2022/08/24 09:39:54;;;;;;;42.63;28.88;;;588.80;2432.00;;;;;;5110584;28;20024;-79
2022/08/24 09:42:35;;;;;;;42.13;28.85;;;564.10;2432.00;;;;;;5049806;28;20136;-79
2022/08/24 09:45:12;;;;;;;43.17;30.05;;;564.10;2432.00;;;;;;5033338;28;20032;-78
2022/08/24 09:47:53;;;;;;;39.65;28.10;;;564.10;2432.00;;;;;;5045931;28;20060;-79
2022/08/24 09:50:25;;;;;;;38.00;26.13;;;588.80;2432.00;;;;;;5030198;28;20535;-79
2022/08/24 09:53:08;;;;;;;36.20;25.45;;;564.10;2432.00;;;;;;5010796;28;20072;-78
2022/08/24 09:56:17;;;;;;;37.53;26.13;;;588.80;2432.00;;;;;;5013220;28;20600;-79
2022/08/24 09:59:17;;;;;;;34.58;24.75;;;589.00;2432.00;;;;;;4972287;28;20117;-78
2022/08/24 10:01:49;;;;;;;36.17;25.20;;;589.00;2432.00;;;;;;4961546;28;20027;-79
2022/08/24 10:04:34;;;;;;;34.03;25.05;;;589.00;2432.00;;;;;;4987757;28;20034;-79
2022/08/24 10:07:22;;;;;;;33.17;23.55;;;589.00;2432.00;;;;;;4974213;28;20066;-79
2022/08/24 10:10:12;;;;;;;35.70;22.45;;;589.00;2432.00;;;;;;5000470;28;20483;-78
2022/08/24 10:12:48;;;;;;;33.65;24.38;;;589.10;2432.00;;;;;;5005968;28;20109;-78
2022/08/24 10:15:27;;;;;;;;;;;589.10;2432.00;;;;;;5001898;28;20499;-78
2022/08/24 10:18:17;;;;;;;36.72;25.52;;;589.20;2432.00;;;;;;4991545;28;19910;-79
2022/08/24 10:21:11;;;;;;;35.17;24.42;;;589.20;2432.00;;;;;;4989701;28;20034;-78
2022/08/24 10:23:39;;;;;;;38.58;25.67;;;589.20;2432.00;;;;;;4992907;28;20033;-79
2022/08/24 10:26:13;;;;;;;41.70;26.33;;;589.30;2432.00;;;;;;5003232;28;20088;-79
2022/08/24 10:28:41;;;;;;;30.88;23.42;;;589.40;2432.00;;;;;;4988103;28;20034;-79
2022/08/24 10:31:09;;;;;;;36.55;24.50;;;589.50;2432.00;;;;;;5009931;28;20121;-78
2022/08/24 10:33:49;;;;;;;33.63;24.33;;;589.50;2432.00;;;;;;5089808;28;20081;-79
2022/08/24 10:36:39;;;;;;;34.70;24.45;;;589.50;2432.00;;;;;;5110889;28;20078;-79
2022/08/24 10:45:27;;;;;;;29.30;23.27;;;589.60;2432.00;;;;;;5091898;28;20031;-79
2022/08/24 10:48:30;;;;;;;36.55;26.98;;;589.70;2432.00;;;;;;5083409;28;20036;-78
2022/08/24 10:51:33;;;;;;;30.95;22.90;;;589.70;2432.00;;;;;;5102893;28;20024;-80
2022/08/24 10:53:59;;;;;;;29.15;22.85;;;589.70;2432.00;;;;;;5074028;28;20027;-79
2022/08/24 10:56:58;;;;;;;31.27;25.05;;;614.50;2432.00;;;;;;5058210;28;20046;-80
2022/08/24 10:59:32;;;;;;;41.83;30.48;;;614.40;2432.00;;;;;;5010038;28;20108;-83
2022/08/24 11:02:07;;;;;;;33.28;24.73;;;614.40;2432.00;;;;;;5033165;28;20026;-82
2022/08/24 11:04:34;;;;;;;30.83;22.63;;;614.50;2432.00;;;;;;5015912;28;20049;-81
2022/08/24 11:07:18;;;;;;;29.15;22.67;;;614.50;2432.00;;;;;;5002944;28;20030;-82
2022/08/24 11:09:52;;;;;;;27.70;22.15;;;614.50;2432.00;;;;;;5016377;28;20030;-82
2022/08/24 11:12:28;;;;;;;32.13;23.38;;;614.60;2432.00;;;;;;5026923;28;20032;-82
2022/08/24 11:14:57;;;;;;;28.02;22.50;;;614.80;2432.00;;;;;;5019517;28;20059;-83
2022/08/24 11:17:26;;;;;;;30.23;22.48;;;614.80;2432.00;;;;;;5036033;28;20037;-84
2022/08/24 11:19:52;;;;;;;40.20;29.63;;;614.80;2432.00;;;;;;5030259;28;20029;-75
2022/08/24 11:22:32;;;;;;;29.40;22.63;;;614.90;2432.00;;;;;;5004219;28;20034;-75
2022/08/24 11:25:14;;;;;;;24.38;19.25;;;615.00;2432.00;;;;;;5031590;28;20026;-77
2022/08/24 11:27:47;;;;;;;39.22;30.52;;;615.10;2432.00;;;;;;5037653;28;20044;-78
2022/08/24 11:30:18;;;;;;;24.20;19.20;;;615.30;2432.00;;;;;;5074888;28;20032;-76
2022/08/24 11:33:00;;;;;;;23.77;19.55;;;640.10;2432.00;;;;;;5077959;28;20032;-76
2022/08/24 11:35:32;;;;;;;21.00;17.50;;;640.20;2432.00;;;;;;5073558;28;20035;-78
2022/08/24 11:38:24;;;;;;;23.67;19.20;;;640.20;2432.00;;;;;;5076475;28;20110;-76
2022/08/24 11:40:56;;;;;;;25.92;18.90;;;640.20;2432.00;;;;;;5078282;28;20040;-76
2022/08/24 11:43:30;;;;;;;21.80;17.38;;;640.50;2432.00;;;;;;5078986;28;20121;-76
2022/08/24 11:46:16;;;;;;;22.50;17.75;;;640.60;2432.00;;;;;;5077309;28;20013;-75
2022/08/24 11:49:06;;;;;;;22.98;16.20;;;640.60;2432.00;;;;;;5074699;28;20029;-85
2022/08/24 11:52:14;;;;;;;20.10;16.05;;;640.50;2432.00;;;;;;5077442;28;20028;-76
2022/08/24 11:55:09;;;;;;;20.60;15.95;;;640.30;2432.00;;;;;;5088681;28;20016;-75
2022/08/24 11:57:58;;;;;;;23.88;16.95;;;640.30;2432.00;;;;;;5087130;28;20075;-74
2022/08/24 12:00:35;;;;;;;24.45;16.83;;;640.10;2432.00;;;;;;5011950;28;20025;-75
2022/08/24 12:03:58;;;;;;;17.98;14.98;;;640.10;2432.00;;;;;;5028075;28;20060;-74
2022/08/24 12:07:07;;;;;;;18.98;15.18;;;640.10;2432.00;;;;;;4971773;28;20045;-76
2022/08/24 12:09:36;;;;;;;21.10;15.32;;;640.10;2432.00;;;;;;4914485;29;20040;-77
2022/08/24 12:12:24;;;;;;;19.58;16.35;;;640.00;2432.00;;;;;;4914349;29;20115;-77
2022/08/24 12:15:11;;;;;;;19.23;16.02;;;640.00;2432.00;;;;;;4916976;29;20016;-77
2022/08/24 12:17:55;;;;;;;20.23;14.40;;;640.10;2432.00;;;;;;4913812;29;20095;-77
2022/08/24 12:20:27;;;;;;;20.83;15.63;;;640.20;2432.00;;;;;;4914551;29;20048;-78
2022/08/24 12:22:56;;;;;;;20.55;16.15;;;640.20;2432.00;;;;;;4911830;29;20028;-77
2022/08/24 12:28:10;;;;;;;18.38;15.00;;;640.20;2432.00;;;;;;4914594;29;20083;-76
2022/08/24 12:30:36;;;;;;;20.38;16.05;;;640.30;2432.00;;;;;;4914704;29;20055;-76
2022/08/24 12:33:06;;;;;;;18.38;15.13;;;640.20;2432.00;;;;;;4916525;29;20048;-77
2022/08/24 12:35:44;;;;;;;18.88;14.38;;;640.20;2432.00;;;;;;4914358;29;20055;-76
2022/08/24 12:38:10;;;;;;;19.00;14.38;;;640.20;2432.00;;;;;;5001134;28;20029;-76
2022/08/24 12:40:51;;;;;;;26.52;20.23;;;640.30;2432.00;;;;;;5013093;28;20666;-77
2022/08/24 12:43:34;;;;;;;65.90;49.10;;;640.30;2432.00;;;;;;4996585;28;20065;-76
2022/08/24 12:46:01;;;;;;;22.85;18.40;;;640.50;2432.00;;;;;;5070555;28;20058;-77
2022/08/24 12:48:46;;;;;;;17.50;14.57;;;640.50;2432.00;;;;;;5071848;28;20082;-77
2022/08/24 12:51:25;;;;;;;17.17;14.02;;;640.50;2432.00;;;;;;5073488;28;20093;-78
2022/08/24 12:54:15;;;;;;;17.20;12.80;;;640.60;2432.00;;;;;;5086782;28;20019;-78
2022/08/24 12:56:52;;;;;;;17.67;12.90;;;640.60;2432.00;;;;;;5111047;28;20032;-78
2022/08/24 12:59:26;;;;;;;16.63;12.88;;;640.70;2432.00;;;;;;5107963;28;20465;-78
2022/08/24 13:02:24;;;;;;;18.17;13.63;;;640.70;2432.00;;;;;;5075357;28;20029;-77
2022/08/24 13:04:50;;;;;;;16.00;12.60;;;640.90;2432.00;;;;;;5071548;28;20054;-77
2022/08/24 13:07:30;;;;;;;16.15;12.68;;;666.10;2432.00;;;;;;5072546;28;20045;-77
2022/08/24 13:09:59;;;;;;;15.80;12.77;;;666.30;2432.00;;;;;;5077265;28;20078;-77
2022/08/24 13:12:42;;;;;;;15.07;12.38;;;666.50;2432.00;;;;;;5071534;28;20489;-77
2022/08/24 13:15:26;;;;;;;15.48;12.13;;;666.50;2432.00;;;;;;5085697;28;20064;-79